Waynesville-St. Robert Regional Forney field Fort Leonard Wood US
ICAO: KTBN
IATA: TBN
Category: Medium
Scheduled Services: Yes

Elevation: 1159 ft
TransAlt. 18000 ft.

Airport Communications:
ATIS:118.7
KANSAS CITY CNTR:133.8
CTAF:125.4
FORNEY TWR:125.4

KTBN Zoom In..

If you have problems with the map follow the link
https://www.worldairports.se/pages/airport.php?
ICAO=KTBN

Runways:

(A) RW 14 length 6038 ft width 150 ft
ILS 110.90 / hdg 144

(B) RW 32 length 6038 ft width 150 ft
---- / hdg 324

Location; KTBN
Day. 21 / Time. 07.56 Zulu
* Altimeter: 30.39
* Temperature: 03° c. 37.4°f.
* Wind from: KTB° Speed N kn.
Dewpoint: -04° c.
Visibility: 10 Statute Miles.
Clouds: Clear (automated report).

KTBN 210756Z AUTO 05003KT 10SM CLR 03/M04 A3039 RMK AO2 SLP295 T00271045


Wind From KTB°
Speed N kn.

 
 
jpsmedia.com for Web Design worldairports.se 2018   terms of use